createdAt,value
2023-04-11T00:02:03.788Z,61.30
2023-04-11T00:04:34.281Z,61.39
2023-04-11T00:07:01.996Z,61.36
2023-04-11T00:09:29.441Z,61.39
2023-04-11T00:11:57.964Z,61.38
2023-04-11T00:14:25.445Z,61.46
2023-04-11T00:16:53.875Z,61.55
2023-04-11T00:19:25.591Z,61.70
2023-04-11T00:21:57.561Z,61.99
2023-04-11T00:24:26.125Z,62.17
2023-04-11T00:26:54.095Z,62.55
2023-04-11T00:29:21.772Z,63.16
2023-04-11T00:31:49.761Z,63.89
2023-04-11T00:34:17.421Z,64.14
2023-04-11T00:36:45.077Z,64.04
2023-04-11T00:39:13.294Z,64.22
2023-04-11T00:41:40.794Z,64.28
2023-04-11T00:44:08.702Z,64.40
2023-04-11T00:46:36.538Z,64.41
2023-04-11T00:49:04.042Z,64.86
2023-04-11T00:51:31.682Z,65.13
2023-04-11T00:54:01.287Z,65.52
2023-04-11T00:56:29.448Z,65.46
2023-04-11T00:58:57.428Z,65.54
2023-04-11T01:01:25.583Z,65.54
2023-04-11T01:03:53.836Z,65.61
2023-04-11T01:06:23.519Z,65.38
2023-04-11T01:08:51.443Z,65.51
2023-04-11T01:11:20.321Z,65.61
2023-04-11T01:13:48.817Z,65.52
2023-04-11T01:16:21.608Z,65.55
2023-04-11T01:18:49.793Z,65.90
2023-04-11T01:21:19.654Z,65.67
2023-04-11T01:23:48.902Z,65.88
2023-04-11T01:26:16.804Z,66.13
2023-04-11T01:28:44.363Z,66.25
2023-04-11T01:31:12.277Z,66.27
2023-04-11T01:33:40.502Z,66.31
2023-04-11T01:36:08.824Z,66.57
2023-04-11T01:38:36.451Z,66.88
2023-04-11T01:41:05.882Z,67.11
2023-04-11T01:43:33.493Z,67.24
2023-04-11T01:46:01.391Z,67.59
2023-04-11T01:48:29.428Z,67.57
2023-04-11T01:50:57.235Z,67.63
2023-04-11T01:53:24.769Z,67.69
2023-04-11T01:55:52.527Z,67.88
2023-04-11T01:58:20.013Z,68.11
2023-04-11T02:00:47.601Z,68.29
2023-04-11T02:03:17.723Z,68.29
2023-04-11T02:05:45.493Z,68.29
2023-04-11T02:08:13.106Z,68.61
2023-04-11T02:10:40.963Z,68.75
2023-04-11T02:13:09.387Z,68.88
2023-04-11T02:15:36.937Z,69.40
2023-04-11T02:18:07.060Z,69.53
2023-04-11T02:20:37.468Z,69.95
2023-04-11T02:23:04.961Z,70.52
2023-04-11T02:25:32.459Z,70.58
2023-04-11T02:28:00.535Z,70.53
2023-04-11T02:30:28.236Z,70.39
2023-04-11T02:32:55.711Z,70.57
2023-04-11T02:35:23.517Z,70.38
2023-04-11T02:37:51.027Z,70.45
2023-04-11T02:40:18.550Z,70.49
2023-04-11T02:42:46.401Z,70.62
2023-04-11T02:45:14.115Z,70.42
2023-04-11T02:47:41.690Z,70.26
2023-04-11T02:50:09.974Z,70.35
2023-04-11T02:52:39.449Z,70.52
2023-04-11T02:55:07.207Z,70.44
2023-04-11T02:57:35.538Z,70.17
2023-04-11T03:00:07.162Z,70.41
2023-04-11T03:02:36.247Z,70.59
2023-04-11T03:05:04.311Z,70.62
2023-04-11T03:07:32.954Z,70.71
2023-04-11T03:10:00.929Z,70.54
2023-04-11T03:12:28.453Z,70.49
2023-04-11T03:14:56.755Z,70.32
2023-04-11T03:17:24.568Z,70.32
2023-04-11T03:19:52.193Z,70.19
2023-04-11T03:22:19.843Z,70.58
2023-04-11T03:24:49.828Z,70.55
2023-04-11T03:27:18.616Z,70.59
2023-04-11T03:29:46.500Z,70.33
2023-04-11T03:32:14.740Z,70.21
2023-04-11T03:34:42.760Z,70.15
2023-04-11T03:37:10.731Z,70.00
2023-04-11T03:39:38.790Z,70.06
2023-04-11T03:42:06.486Z,69.92
2023-04-11T03:44:34.268Z,69.66
2023-04-11T03:47:02.178Z,69.67
2023-04-11T03:49:31.305Z,69.44
2023-04-11T03:51:58.901Z,69.63
2023-04-11T03:54:27.717Z,69.77
2023-04-11T03:56:55.717Z,69.55
2023-04-11T03:59:23.527Z,69.56
2023-04-11T04:01:51.711Z,69.75
2023-04-11T04:04:19.732Z,69.65
2023-04-11T04:06:47.972Z,69.78
2023-04-11T04:09:15.930Z,69.79
2023-04-11T04:11:44.573Z,70.22
2023-04-11T04:14:14.944Z,70.53
2023-04-11T04:16:42.813Z,70.63
2023-04-11T04:19:11.431Z,70.51
2023-04-11T04:21:43.248Z,70.79
2023-04-11T04:24:12.363Z,70.87
2023-04-11T04:26:41.317Z,71.19
2023-04-11T04:29:10.271Z,70.89
2023-04-11T04:31:41.189Z,71.14
2023-04-11T04:34:10.163Z,70.89
2023-04-11T04:36:49.324Z,70.82
2023-04-11T04:39:19.283Z,70.88
2023-04-11T04:41:49.150Z,70.66
2023-04-11T04:44:17.747Z,70.55
2023-04-11T04:46:45.608Z,70.39
2023-04-11T04:49:13.122Z,70.99
2023-04-11T04:51:40.930Z,70.75
2023-04-11T04:54:08.472Z,71.13
2023-04-11T04:56:36.895Z,71.00
2023-04-11T04:59:05.239Z,70.96
2023-04-11T05:01:35.348Z,71.30
2023-04-11T05:04:03.687Z,70.87
2023-04-11T05:06:32.969Z,71.30
2023-04-11T05:09:02.422Z,70.38
2023-04-11T05:11:30.174Z,70.88
2023-04-11T05:13:58.330Z,71.11
2023-04-11T05:16:26.629Z,70.73
2023-04-11T05:18:54.320Z,70.55
2023-04-11T05:21:23.186Z,71.01
2023-04-11T05:23:50.837Z,70.39
2023-04-11T05:26:18.464Z,70.63
2023-04-11T05:28:46.296Z,70.49
2023-04-11T05:31:14.237Z,69.60
2023-04-11T05:33:42.260Z,69.20
2023-04-11T05:36:14.482Z,69.31
2023-04-11T05:38:43.409Z,69.84
2023-04-11T05:41:12.308Z,69.13
2023-04-11T05:43:39.938Z,68.48
2023-04-11T05:46:09.608Z,68.58
2023-04-11T05:48:38.231Z,69.04
2023-04-11T05:51:06.041Z,69.21
2023-04-11T05:53:34.800Z,69.27
2023-04-11T05:56:02.641Z,69.44
2023-04-11T05:58:30.388Z,68.48
2023-04-11T06:00:59.952Z,68.17
2023-04-11T06:03:27.914Z,67.67
2023-04-11T06:05:56.013Z,68.28
2023-04-11T06:08:23.556Z,68.44
2023-04-11T06:10:51.393Z,67.83
2023-04-11T06:13:18.941Z,67.95
2023-04-11T06:15:46.691Z,67.25
2023-04-11T06:18:14.547Z,67.14
2023-04-11T06:20:42.094Z,66.56
2023-04-11T06:23:09.556Z,66.33
2023-04-11T06:25:37.384Z,64.95
2023-04-11T06:28:04.894Z,64.80
2023-04-11T06:30:32.416Z,64.91
2023-04-11T06:33:00.436Z,64.54
2023-04-11T06:35:28.082Z,64.65
2023-04-11T06:37:55.679Z,64.45
2023-04-11T06:40:23.656Z,63.68
2023-04-11T06:42:51.234Z,62.91
2023-04-11T06:45:18.940Z,61.84
2023-04-11T06:47:46.808Z,60.94
2023-04-11T06:50:14.411Z,60.67
2023-04-11T06:52:41.923Z,59.79
2023-04-11T06:55:10.283Z,59.19
2023-04-11T06:57:37.744Z,58.23
2023-04-11T07:00:07.499Z,58.18
2023-04-11T07:02:39.550Z,58.07
2023-04-11T07:05:09.423Z,57.55
2023-04-11T07:07:37.584Z,57.55
2023-04-11T07:10:06.462Z,57.76
2023-04-11T07:12:33.944Z,57.55
2023-04-11T07:15:04.852Z,57.61
2023-04-11T07:17:32.447Z,56.82
2023-04-11T07:19:59.906Z,60.45
2023-04-11T07:22:29.330Z,59.48
2023-04-11T07:24:57.552Z,57.84
2023-04-11T07:27:25.032Z,56.99
2023-04-11T07:29:52.755Z,55.82
2023-04-11T07:32:20.266Z,52.68
2023-04-11T07:34:47.746Z,54.74
2023-04-11T07:37:16.272Z,51.56
2023-04-11T07:39:44.743Z,51.84
2023-04-11T07:42:12.450Z,52.19
2023-04-11T07:44:40.284Z,53.33
2023-04-11T07:47:07.789Z,52.85
2023-04-11T07:49:35.244Z,52.96
2023-04-11T07:52:03.203Z,53.32
2023-04-11T07:54:30.921Z,52.99
2023-04-11T07:56:58.400Z,52.82
2023-04-11T07:59:26.210Z,53.73
2023-04-11T08:02:04.934Z,53.56
2023-04-11T08:04:34.027Z,54.23
2023-04-11T08:07:01.908Z,53.75
2023-04-11T08:09:29.907Z,53.89
2023-04-11T08:11:58.500Z,53.45
2023-04-11T08:14:25.940Z,53.04
2023-04-11T08:16:53.847Z,52.79
2023-04-11T08:19:22.042Z,52.85
2023-04-11T08:21:49.598Z,51.84
2023-04-11T08:24:17.503Z,51.40
2023-04-11T08:26:45.728Z,50.61
2023-04-11T08:29:13.366Z,50.38
2023-04-11T08:31:47.041Z,49.87
2023-04-11T08:34:14.923Z,47.55
2023-04-11T08:36:42.507Z,47.22
2023-04-11T08:39:10.069Z,46.88
2023-04-11T08:41:38.762Z,45.35
2023-04-11T08:44:11.852Z,45.72
2023-04-11T08:46:43.571Z,45.24
2023-04-11T08:49:11.480Z,43.34
2023-04-11T08:51:42.409Z,41.67
2023-04-11T08:54:10.434Z,42.29
2023-04-11T08:56:42.096Z,42.72
2023-04-11T08:59:09.955Z,40.81
2023-04-11T09:01:37.648Z,41.42
2023-04-11T09:04:05.851Z,41.35
2023-04-11T09:06:34.297Z,40.33
2023-04-11T09:09:08.127Z,40.28
2023-04-11T09:11:52.490Z,40.28
2023-04-11T09:14:25.253Z,41.41
2023-04-11T09:17:04.987Z,41.94
2023-04-11T09:19:35.086Z,40.89
2023-04-11T09:22:06.143Z,41.11
2023-04-11T09:24:35.791Z,38.87
2023-04-11T09:27:15.779Z,36.57
2023-04-11T09:29:45.708Z,37.48
2023-04-11T09:32:32.302Z,38.51
2023-04-11T09:35:18.799Z,40.01
2023-04-11T09:37:49.427Z,38.86
2023-04-11T09:40:18.986Z,36.36
2023-04-11T09:42:48.499Z,37.38
2023-04-11T09:45:18.364Z,36.57
2023-04-11T09:47:47.507Z,34.99
2023-04-11T09:50:16.008Z,34.01
2023-04-11T09:52:45.032Z,34.65
2023-04-11T09:55:19.050Z,33.60
2023-04-11T09:57:55.951Z,33.75
2023-04-11T10:00:32.333Z,33.94
2023-04-11T10:03:00.487Z,33.83
2023-04-11T10:05:30.563Z,34.17
2023-04-11T10:08:17.344Z,33.81
2023-04-11T10:10:45.404Z,32.80
2023-04-11T10:13:37.652Z,32.67
2023-04-11T10:16:16.265Z,31.83
2023-04-11T10:18:56.263Z,32.68
2023-04-11T10:21:44.293Z,31.64
2023-04-11T10:24:26.271Z,32.49
2023-04-11T10:27:07.653Z,33.91
2023-04-11T10:29:52.043Z,32.69
2023-04-11T10:32:22.028Z,32.55
2023-04-11T10:34:53.337Z,32.63
2023-04-11T10:37:39.375Z,33.46
2023-04-11T10:40:10.520Z,34.57
2023-04-11T10:42:41.018Z,33.11
2023-04-11T10:45:28.903Z,32.85
2023-04-11T10:47:56.781Z,30.97
2023-04-11T10:50:27.353Z,31.38
2023-04-11T10:52:57.500Z,31.71
2023-04-11T10:55:27.238Z,31.71
2023-04-11T10:58:14.114Z,31.99
2023-04-11T11:00:57.459Z,32.13
2023-04-11T11:03:30.836Z,31.96
2023-04-11T11:06:06.322Z,32.03
2023-04-11T11:08:41.496Z,32.89
2023-04-11T11:11:11.568Z,32.85
2023-04-11T11:13:43.214Z,31.92
2023-04-11T11:16:16.740Z,32.92
2023-04-11T11:18:47.273Z,31.96
2023-04-11T11:21:26.477Z,31.71
2023-04-11T11:24:00.818Z,31.76
2023-04-11T11:26:44.294Z,31.30
2023-04-11T11:29:12.228Z,31.11
2023-04-11T11:31:41.864Z,31.54
2023-04-11T11:34:23.052Z,31.52
2023-04-11T11:36:53.333Z,31.66
2023-04-11T11:39:22.872Z,31.81
2023-04-11T11:41:51.326Z,31.84
2023-04-11T11:44:28.005Z,32.21
2023-04-11T11:47:03.136Z,31.52
2023-04-11T11:49:54.363Z,31.55
2023-04-11T11:52:36.629Z,31.56
2023-04-11T11:55:09.579Z,33.06
2023-04-11T11:57:44.802Z,33.42
2023-04-11T12:00:13.979Z,32.99
2023-04-11T12:02:43.236Z,32.77
2023-04-11T12:05:12.602Z,32.92
2023-04-11T12:07:40.669Z,33.33
2023-04-11T12:10:13.664Z,32.02
2023-04-11T12:12:43.502Z,32.88
2023-04-11T12:15:23.682Z,33.42
2023-04-11T12:17:55.726Z,32.96
2023-04-11T12:20:27.357Z,32.96
2023-04-11T12:22:55.498Z,34.81
2023-04-11T12:25:25.647Z,32.60
2023-04-11T12:27:53.398Z,32.46
2023-04-11T12:30:20.911Z,31.76
2023-04-11T12:32:48.924Z,31.66
2023-04-11T12:35:16.832Z,32.05
2023-04-11T12:37:44.535Z,33.26
2023-04-11T12:40:13.080Z,30.72
2023-04-11T12:42:53.544Z,31.94
2023-04-11T12:45:25.198Z,31.39
2023-04-11T12:47:53.440Z,31.68
2023-04-11T12:50:23.474Z,30.92
2023-04-11T12:52:52.417Z,31.64
2023-04-11T12:55:20.013Z,31.33
2023-04-11T12:57:47.577Z,31.60
2023-04-11T13:00:16.732Z,31.77
2023-04-11T13:02:45.464Z,31.41
2023-04-11T13:05:16.588Z,31.00
2023-04-11T13:07:46.255Z,30.37
2023-04-11T13:10:16.218Z,31.04
2023-04-11T13:12:45.889Z,31.76
2023-04-11T13:15:15.662Z,32.52
2023-04-11T13:17:43.784Z,32.50
2023-04-11T13:20:12.885Z,32.30
2023-04-11T13:22:42.334Z,32.74
2023-04-11T13:25:10.903Z,32.16
2023-04-11T13:27:40.140Z,32.72
2023-04-11T13:30:09.911Z,31.58
2023-04-11T13:32:37.712Z,31.47
2023-04-11T13:35:06.335Z,32.56
2023-04-11T13:37:34.128Z,31.86
2023-04-11T13:40:01.588Z,32.54
2023-04-11T13:42:29.076Z,31.81
2023-04-11T13:44:57.058Z,32.72
2023-04-11T13:47:24.666Z,32.04
2023-04-11T13:49:52.180Z,31.69
2023-04-11T13:52:22.159Z,31.40
2023-04-11T13:54:50.073Z,32.17
2023-04-11T13:57:17.589Z,32.45
2023-04-11T13:59:45.407Z,31.82
2023-04-11T14:02:12.989Z,32.64
2023-04-11T14:04:40.894Z,32.20
2023-04-11T14:07:08.427Z,32.45
2023-04-11T14:09:36.244Z,33.76
2023-04-11T14:12:04.273Z,34.39
2023-04-11T14:14:31.857Z,33.68
2023-04-11T14:16:59.342Z,32.87
2023-04-11T14:19:27.328Z,33.13
2023-04-11T14:21:54.863Z,32.65
2023-04-11T14:24:22.534Z,32.70
2023-04-11T14:26:50.508Z,32.28
2023-04-11T14:29:20.359Z,32.42
2023-04-11T14:31:48.616Z,32.96
2023-04-11T14:34:19.336Z,32.86
2023-04-11T14:36:47.012Z,32.85
2023-04-11T14:39:15.184Z,32.49
2023-04-11T14:41:43.101Z,32.83
2023-04-11T14:44:10.657Z,33.22
2023-04-11T14:46:38.236Z,32.84
2023-04-11T14:49:07.495Z,32.75
2023-04-11T14:51:36.661Z,32.60
2023-04-11T14:54:04.550Z,33.32
2023-04-11T14:56:32.455Z,33.34
2023-04-11T14:59:00.411Z,33.20
2023-04-11T15:01:28.004Z,33.84
2023-04-11T15:03:56.815Z,33.15
2023-04-11T15:06:24.669Z,33.57
2023-04-11T15:08:52.509Z,33.64
2023-04-11T15:11:20.368Z,34.56
2023-04-11T15:13:48.407Z,35.05
2023-04-11T15:16:16.626Z,35.28
2023-04-11T15:18:45.807Z,36.11
2023-04-11T15:21:13.302Z,35.22
2023-04-11T15:23:41.006Z,35.59
2023-04-11T15:26:08.922Z,35.62
2023-04-11T15:28:38.370Z,35.26
2023-04-11T15:31:09.291Z,35.17
2023-04-11T15:33:38.315Z,35.80
2023-04-11T15:36:06.658Z,35.79
2023-04-11T15:38:36.522Z,36.33
2023-04-11T15:41:04.516Z,36.35
2023-04-11T15:43:32.509Z,36.46
2023-04-11T15:46:01.650Z,36.49
2023-04-11T15:48:30.074Z,36.78
2023-04-11T15:50:57.661Z,37.10
2023-04-11T15:53:25.280Z,37.17
2023-04-11T15:55:53.136Z,37.51
2023-04-11T15:58:20.654Z,37.09
2023-04-11T16:00:48.113Z,36.46
2023-04-11T16:03:16.752Z,36.76
2023-04-11T16:05:45.115Z,37.36
2023-04-11T16:08:12.651Z,37.42
2023-04-11T16:10:40.517Z,37.38
2023-04-11T16:13:08.735Z,37.84
2023-04-11T16:15:36.241Z,38.48
2023-04-11T16:18:04.778Z,38.94
2023-04-11T16:20:33.987Z,39.34
2023-04-11T16:23:01.473Z,39.60
2023-04-11T16:25:29.544Z,39.97
2023-04-11T16:27:57.045Z,40.03
2023-04-11T16:30:26.347Z,39.74
2023-04-11T16:32:54.343Z,39.98
2023-04-11T16:35:21.940Z,39.52
2023-04-11T16:37:49.654Z,39.72
2023-04-11T16:40:17.493Z,40.11
2023-04-11T16:42:45.001Z,40.01
2023-04-11T16:45:12.661Z,40.31
2023-04-11T16:47:40.526Z,40.17
2023-04-11T16:50:08.529Z,40.63
2023-04-11T16:52:36.076Z,40.70
2023-04-11T16:55:04.120Z,40.67
2023-04-11T16:57:33.381Z,40.66
2023-04-11T17:00:12.200Z,40.78
2023-04-11T17:02:40.095Z,41.13
2023-04-11T17:05:08.750Z,41.21
2023-04-11T17:07:36.341Z,41.59
2023-04-11T17:10:05.275Z,41.93
2023-04-11T17:12:32.826Z,42.00
2023-04-11T17:15:00.874Z,41.86
2023-04-11T17:17:28.897Z,42.01
2023-04-11T17:19:56.712Z,43.34
2023-04-11T17:22:24.229Z,44.53
2023-04-11T17:24:52.014Z,43.16
2023-04-11T17:27:19.525Z,42.27
2023-04-11T17:29:47.342Z,42.08
2023-04-11T17:32:15.135Z,41.99
2023-04-11T17:34:42.604Z,41.99
2023-04-11T17:37:10.215Z,42.14
2023-04-11T17:39:38.126Z,42.27
2023-04-11T17:42:05.811Z,42.54
2023-04-11T17:44:33.378Z,42.83
2023-04-11T17:47:01.359Z,43.25
2023-04-11T17:49:28.889Z,43.59
2023-04-11T17:51:59.057Z,43.73
2023-04-11T17:54:27.630Z,44.02
2023-04-11T17:56:56.380Z,44.24
2023-04-11T17:59:25.539Z,44.39
2023-04-11T18:01:56.010Z,44.56
2023-04-11T18:04:24.198Z,44.91
2023-04-11T18:06:51.864Z,45.12
2023-04-11T18:09:20.311Z,45.51
2023-04-11T18:11:48.142Z,45.69
2023-04-11T18:14:15.743Z,46.88
2023-04-11T18:16:46.337Z,47.64
2023-04-11T18:19:14.761Z,48.89
2023-04-11T18:21:42.603Z,49.23
2023-04-11T18:24:10.081Z,49.49
2023-04-11T18:26:37.963Z,49.58
2023-04-11T18:29:06.231Z,49.78
2023-04-11T18:31:35.209Z,50.03
2023-04-11T18:34:04.432Z,50.63
2023-04-11T18:36:32.646Z,51.15
2023-04-11T18:39:00.270Z,51.57
2023-04-11T18:41:28.089Z,51.90
2023-04-11T18:43:55.674Z,51.99
2023-04-11T18:46:23.459Z,52.29
2023-04-11T18:48:51.358Z,52.71
2023-04-11T18:51:19.620Z,52.90
2023-04-11T18:53:49.005Z,53.06
2023-04-11T18:56:16.911Z,53.18
2023-04-11T18:58:46.669Z,52.92
2023-04-11T19:01:17.290Z,53.08
2023-04-11T19:03:46.563Z,53.04
2023-04-11T19:06:14.362Z,53.25
2023-04-11T19:08:41.927Z,53.09
2023-04-11T19:11:09.818Z,53.26
2023-04-11T19:13:37.314Z,53.28
2023-04-11T19:16:05.302Z,53.60
2023-04-11T19:18:33.153Z,53.71
2023-04-11T19:21:00.804Z,53.86
2023-04-11T19:23:28.330Z,54.01
2023-04-11T19:25:56.761Z,54.19
2023-04-11T19:28:24.220Z,54.52
2023-04-11T19:30:51.748Z,54.56
2023-04-11T19:33:19.900Z,54.64
2023-04-11T19:35:47.707Z,54.64
2023-04-11T19:38:15.198Z,54.99
2023-04-11T19:40:43.042Z,55.10
2023-04-11T19:43:10.789Z,55.29
2023-04-11T19:45:38.368Z,55.49
2023-04-11T19:48:06.437Z,55.64
2023-04-11T19:50:34.028Z,55.89
2023-04-11T19:53:01.650Z,56.02
2023-04-11T19:55:29.453Z,56.23
2023-04-11T19:57:56.953Z,56.29
2023-04-11T20:00:26.511Z,56.31
2023-04-11T20:02:55.309Z,56.50
2023-04-11T20:05:23.877Z,56.57
2023-04-11T20:07:51.468Z,56.71
2023-04-11T20:10:19.330Z,56.86
2023-04-11T20:12:47.051Z,56.59
2023-04-11T20:15:15.098Z,56.48
2023-04-11T20:17:45.230Z,56.50
2023-04-11T20:20:13.812Z,56.52
2023-04-11T20:22:44.831Z,56.28
2023-04-11T20:25:12.821Z,56.42
2023-04-11T20:27:42.613Z,56.37
2023-04-11T20:30:10.816Z,56.46
2023-04-11T20:32:40.511Z,56.65
2023-04-11T20:35:10.001Z,56.62
2023-04-11T20:37:40.230Z,56.22
2023-04-11T20:40:09.939Z,56.20
2023-04-11T20:42:42.422Z,55.78
2023-04-11T20:45:12.668Z,55.91
2023-04-11T20:47:41.360Z,56.02
2023-04-11T20:50:10.810Z,55.76
2023-04-11T20:52:41.243Z,55.81
2023-04-11T20:55:10.178Z,55.84
2023-04-11T20:57:38.218Z,55.70
2023-04-11T21:00:14.555Z,54.98
2023-04-11T21:02:45.246Z,54.80
2023-04-11T21:05:13.971Z,54.29
2023-04-11T21:07:42.283Z,54.15
2023-04-11T21:10:10.872Z,53.62
2023-04-11T21:12:38.658Z,53.43
2023-04-11T21:15:07.389Z,53.14
2023-04-11T21:17:35.573Z,53.15
2023-04-11T21:20:17.889Z,52.64
2023-04-11T21:22:47.861Z,51.74
2023-04-11T21:25:16.419Z,51.78
2023-04-11T21:27:44.140Z,51.87
2023-04-11T21:30:13.023Z,51.96
2023-04-11T21:32:41.168Z,51.97
2023-04-11T21:35:10.652Z,51.84
2023-04-11T21:37:38.827Z,51.66
2023-04-11T21:40:07.014Z,51.60
2023-04-11T21:42:34.506Z,51.26
2023-04-11T21:45:02.374Z,51.44
2023-04-11T21:47:29.943Z,51.57
2023-04-11T21:49:57.429Z,51.54
2023-04-11T21:52:25.447Z,51.61
2023-04-11T21:54:52.923Z,51.54
2023-04-11T21:57:20.418Z,51.65
2023-04-11T21:59:48.332Z,51.91
2023-04-11T22:02:15.999Z,52.04
2023-04-11T22:05:00.934Z,52.11
2023-04-11T22:07:47.710Z,52.24
2023-04-11T22:10:22.247Z,52.44
2023-04-11T22:12:50.044Z,52.77
2023-04-11T22:15:18.617Z,52.93
2023-04-11T22:17:50.501Z,53.28
2023-04-11T22:20:19.540Z,53.42
2023-04-11T22:22:47.001Z,53.57
2023-04-11T22:25:18.222Z,53.83
2023-04-11T22:27:46.294Z,54.04
2023-04-11T22:30:14.824Z,54.26
2023-04-11T22:32:42.365Z,54.78
2023-04-11T22:35:10.481Z,55.05
2023-04-11T22:37:37.968Z,55.12
2023-04-11T22:40:06.345Z,55.34
2023-04-11T22:42:34.725Z,55.67
2023-04-11T22:45:02.241Z,55.78
2023-04-11T22:47:29.978Z,55.98
2023-04-11T22:49:57.951Z,56.43
2023-04-11T22:52:25.958Z,56.30
2023-04-11T22:54:54.984Z,56.26
2023-04-11T22:57:22.760Z,56.39
2023-04-11T22:59:50.198Z,56.46
2023-04-11T23:02:17.775Z,56.66
2023-04-11T23:04:45.698Z,56.73
2023-04-11T23:07:13.315Z,56.85
2023-04-11T23:09:40.837Z,57.12
2023-04-11T23:12:08.620Z,57.08
2023-04-11T23:14:36.131Z,57.16
2023-04-11T23:17:03.656Z,57.25
2023-04-11T23:19:31.461Z,57.38
2023-04-11T23:21:59.541Z,57.31
2023-04-11T23:24:28.959Z,57.24
2023-04-11T23:26:57.136Z,57.14
2023-04-11T23:29:24.790Z,57.36
2023-04-11T23:31:52.329Z,57.91
2023-04-11T23:34:21.038Z,58.07
2023-04-11T23:36:48.519Z,58.09
2023-04-11T23:39:16.651Z,58.05
2023-04-11T23:41:44.939Z,58.20
2023-04-11T23:44:12.453Z,58.06
2023-04-11T23:46:40.034Z,57.90
2023-04-11T23:49:07.930Z,58.07
2023-04-11T23:51:35.477Z,58.17
2023-04-11T23:54:02.958Z,58.56
2023-04-11T23:56:30.852Z,58.65
2023-04-11T23:58:58.952Z,59.07
